sensor_id;sensor_type;location;lat;lon;timestamp;pressure;altitude;pressure_sealevel;temperature;humidity
21240;BME280;10778;48.962;9.018;2023-03-18T00:01:36;98640.94;;;6.84;100.00
21240;BME280;10778;48.962;9.018;2023-03-18T00:04:02;98645.44;;;6.82;100.00
21240;BME280;10778;48.962;9.018;2023-03-18T00:06:29;98648.47;;;6.77;100.00
21240;BME280;10778;48.962;9.018;2023-03-18T00:08:55;98652.53;;;6.70;100.00
21240;BME280;10778;48.962;9.018;2023-03-18T00:11:23;98650.97;;;6.67;100.00
21240;BME280;10778;48.962;9.018;2023-03-18T00:13:49;98651.63;;;6.60;100.00
21240;BME280;10778;48.962;9.018;2023-03-18T00:16:15;98647.31;;;6.59;100.00
21240;BME280;10778;48.962;9.018;2023-03-18T00:18:41;98644.16;;;6.55;100.00
21240;BME280;10778;48.962;9.018;2023-03-18T00:21:08;98654.13;;;6.50;100.00
21240;BME280;10778;48.962;9.018;2023-03-18T00:23:35;98654.25;;;6.48;100.00
21240;BME280;10778;48.962;9.018;2023-03-18T00:26:02;98653.19;;;6.51;100.00
21240;BME280;10778;48.962;9.018;2023-03-18T00:28:29;98657.56;;;6.50;100.00
21240;BME280;10778;48.962;9.018;2023-03-18T00:31:04;98666.47;;;6.48;100.00
21240;BME280;10778;48.962;9.018;2023-03-18T00:33:37;98663.66;;;6.39;100.00
21240;BME280;10778;48.962;9.018;2023-03-18T00:36:06;98668.53;;;6.33;100.00
21240;BME280;10778;48.962;9.018;2023-03-18T00:38:35;98676.47;;;6.31;100.00
21240;BME280;10778;48.962;9.018;2023-03-18T00:41:01;98677.34;;;6.32;100.00
21240;BME280;10778;48.962;9.018;2023-03-18T00:43:38;98681.00;;;6.29;100.00
21240;BME280;10778;48.962;9.018;2023-03-18T00:46:13;98677.34;;;6.32;100.00
21240;BME280;10778;48.962;9.018;2023-03-18T00:48:41;98670.00;;;6.25;100.00
21240;BME280;10778;48.962;9.018;2023-03-18T00:51:07;98671.75;;;6.25;100.00
21240;BME280;10778;48.962;9.018;2023-03-18T00:53:35;98664.88;;;6.24;100.00
21240;BME280;10778;48.962;9.018;2023-03-18T00:56:01;98676.28;;;6.23;100.00
21240;BME280;10778;48.962;9.018;2023-03-18T00:58:27;98680.31;;;6.16;100.00
21240;BME280;10778;48.962;9.018;2023-03-18T01:00:53;98679.00;;;6.21;100.00
21240;BME280;10778;48.962;9.018;2023-03-18T01:03:19;98678.19;;;6.21;100.00
21240;BME280;10778;48.962;9.018;2023-03-18T01:05:45;98678.19;;;6.21;100.00
21240;BME280;10778;48.962;9.018;2023-03-18T01:08:11;98674.56;;;6.33;100.00
21240;BME280;10778;48.962;9.018;2023-03-18T01:10:37;98678.53;;;6.28;100.00
21240;BME280;10778;48.962;9.018;2023-03-18T01:13:03;98675.56;;;6.09;100.00
21240;BME280;10778;48.962;9.018;2023-03-18T01:15:29;98677.81;;;6.14;100.00
21240;BME280;10778;48.962;9.018;2023-03-18T01:17:55;98677.13;;;6.12;100.00
21240;BME280;10778;48.962;9.018;2023-03-18T01:20:24;98679.03;;;6.10;100.00
21240;BME280;10778;48.962;9.018;2023-03-18T01:22:53;98681.59;;;6.21;100.00
21240;BME280;10778;48.962;9.018;2023-03-18T01:25:20;98670.34;;;6.09;100.00
21240;BME280;10778;48.962;9.018;2023-03-18T01:27:50;98676.63;;;6.07;100.00
21240;BME280;10778;48.962;9.018;2023-03-18T01:30:17;98677.09;;;6.01;100.00
21240;BME280;10778;48.962;9.018;2023-03-18T01:32:44;98676.50;;;5.86;100.00
21240;BME280;10778;48.962;9.018;2023-03-18T01:35:11;98681.25;;;5.92;100.00
21240;BME280;10778;48.962;9.018;2023-03-18T01:37:42;98681.47;;;5.89;100.00
21240;BME280;10778;48.962;9.018;2023-03-18T01:40:13;98678.97;;;5.87;100.00
21240;BME280;10778;48.962;9.018;2023-03-18T01:42:41;98687.66;;;5.88;100.00
21240;BME280;10778;48.962;9.018;2023-03-18T01:45:28;98684.59;;;5.82;100.00
21240;BME280;10778;48.962;9.018;2023-03-18T01:47:57;98680.06;;;5.84;100.00
21240;BME280;10778;48.962;9.018;2023-03-18T01:50:27;98686.34;;;5.82;100.00
21240;BME280;10778;48.962;9.018;2023-03-18T01:52:57;98682.53;;;5.86;100.00
21240;BME280;10778;48.962;9.018;2023-03-18T01:55:28;98678.16;;;5.87;100.00
21240;BME280;10778;48.962;9.018;2023-03-18T01:57:55;98685.50;;;5.81;100.00
21240;BME280;10778;48.962;9.018;2023-03-18T02:00:21;98681.97;;;5.82;100.00
21240;BME280;10778;48.962;9.018;2023-03-18T02:02:49;98680.28;;;5.70;100.00
21240;BME280;10778;48.962;9.018;2023-03-18T02:05:21;98679.44;;;5.69;100.00
21240;BME280;10778;48.962;9.018;2023-03-18T02:07:47;98673.41;;;5.92;100.00
21240;BME280;10778;48.962;9.018;2023-03-18T02:10:18;98676.13;;;5.67;100.00
21240;BME280;10778;48.962;9.018;2023-03-18T02:12:50;98682.28;;;5.66;100.00
21240;BME280;10778;48.962;9.018;2023-03-18T02:15:26;98681.69;;;5.63;100.00
21240;BME280;10778;48.962;9.018;2023-03-18T02:18:18;98673.84;;;5.63;100.00
21240;BME280;10778;48.962;9.018;2023-03-18T02:26:42;98676.84;;;5.58;100.00
21240;BME280;10778;48.962;9.018;2023-03-18T02:29:13;98682.41;;;5.53;100.00
21240;BME280;10778;48.962;9.018;2023-03-18T02:31:48;98676.09;;;5.45;100.00
21240;BME280;10778;48.962;9.018;2023-03-18T02:34:22;98679.75;;;5.42;100.00
21240;BME280;10778;48.962;9.018;2023-03-18T02:36:51;98681.06;;;5.36;100.00
21240;BME280;10778;48.962;9.018;2023-03-18T02:39:18;98670.97;;;5.32;100.00
21240;BME280;10778;48.962;9.018;2023-03-18T02:41:46;98678.44;;;5.36;100.00
21240;BME280;10778;48.962;9.018;2023-03-18T02:44:13;98673.13;;;5.38;100.00
21240;BME280;10778;48.962;9.018;2023-03-18T02:47:01;98680.25;;;5.47;100.00
21240;BME280;10778;48.962;9.018;2023-03-18T02:49:29;98688.66;;;5.39;100.00
21240;BME280;10778;48.962;9.018;2023-03-18T02:51:55;98687.16;;;5.48;100.00
21240;BME280;10778;48.962;9.018;2023-03-18T02:54:25;98687.44;;;5.32;100.00
21240;BME280;10778;48.962;9.018;2023-03-18T02:56:52;98697.28;;;5.29;100.00
21240;BME280;10778;48.962;9.018;2023-03-18T02:59:19;98693.94;;;5.26;100.00
21240;BME280;10778;48.962;9.018;2023-03-18T03:01:48;98696.78;;;5.23;100.00
21240;BME280;10778;48.962;9.018;2023-03-18T03:04:15;98694.09;;;5.25;100.00
21240;BME280;10778;48.962;9.018;2023-03-18T03:06:42;98694.66;;;5.29;100.00
21240;BME280;10778;48.962;9.018;2023-03-18T03:09:12;98704.13;;;5.18;100.00
21240;BME280;10778;48.962;9.018;2023-03-18T03:11:39;98703.28;;;5.18;100.00
21240;BME280;10778;48.962;9.018;2023-03-18T03:14:13;98710.97;;;5.08;100.00
21240;BME280;10778;48.962;9.018;2023-03-18T03:16:41;98715.91;;;5.00;100.00
21240;BME280;10778;48.962;9.018;2023-03-18T03:19:08;98711.75;;;4.97;100.00
21240;BME280;10778;48.962;9.018;2023-03-18T03:21:35;98714.34;;;4.97;100.00
21240;BME280;10778;48.962;9.018;2023-03-18T03:24:03;98708.53;;;4.93;100.00
21240;BME280;10778;48.962;9.018;2023-03-18T03:26:29;98711.25;;;4.92;100.00
21240;BME280;10778;48.962;9.018;2023-03-18T03:28:56;98716.09;;;4.85;100.00
21240;BME280;10778;48.962;9.018;2023-03-18T03:31:23;98717.25;;;4.81;100.00
21240;BME280;10778;48.962;9.018;2023-03-18T03:33:49;98721.53;;;4.82;100.00
21240;BME280;10778;48.962;9.018;2023-03-18T03:36:16;98725.16;;;4.79;100.00
21240;BME280;10778;48.962;9.018;2023-03-18T03:38:42;98710.47;;;4.78;100.00
21240;BME280;10778;48.962;9.018;2023-03-18T03:41:10;98711.03;;;4.95;100.00
21240;BME280;10778;48.962;9.018;2023-03-18T03:43:37;98723.28;;;4.81;100.00
21240;BME280;10778;48.962;9.018;2023-03-18T03:46:04;98727.50;;;4.71;100.00
21240;BME280;10778;48.962;9.018;2023-03-18T03:48:30;98729.50;;;4.67;100.00
21240;BME280;10778;48.962;9.018;2023-03-18T03:50:56;98718.56;;;4.62;100.00
21240;BME280;10778;48.962;9.018;2023-03-18T03:53:23;98723.97;;;4.59;100.00
21240;BME280;10778;48.962;9.018;2023-03-18T03:55:52;98726.81;;;4.56;100.00
21240;BME280;10778;48.962;9.018;2023-03-18T03:58:18;98715.84;;;4.64;100.00
21240;BME280;10778;48.962;9.018;2023-03-18T04:00:45;98721.72;;;4.54;100.00
21240;BME280;10778;48.962;9.018;2023-03-18T04:03:12;98729.16;;;4.48;100.00
21240;BME280;10778;48.962;9.018;2023-03-18T04:05:38;98731.56;;;4.38;100.00
21240;BME280;10778;48.962;9.018;2023-03-18T04:08:04;98727.63;;;4.32;100.00
21240;BME280;10778;48.962;9.018;2023-03-18T04:10:36;98738.66;;;4.23;100.00
21240;BME280;10778;48.962;9.018;2023-03-18T04:13:05;98741.06;;;4.13;100.00
21240;BME280;10778;48.962;9.018;2023-03-18T04:15:32;98744.31;;;4.17;100.00
21240;BME280;10778;48.962;9.018;2023-03-18T04:18:03;98737.84;;;4.09;100.00
21240;BME280;10778;48.962;9.018;2023-03-18T04:20:33;98740.78;;;4.05;100.00
21240;BME280;10778;48.962;9.018;2023-03-18T04:23:02;98738.47;;;4.00;100.00
21240;BME280;10778;48.962;9.018;2023-03-18T04:25:28;98743.56;;;4.02;100.00
21240;BME280;10778;48.962;9.018;2023-03-18T04:27:56;98740.78;;;4.05;100.00
21240;BME280;10778;48.962;9.018;2023-03-18T04:30:22;98740.88;;;4.03;100.00
21240;BME280;10778;48.962;9.018;2023-03-18T04:33:03;98742.84;;;3.99;100.00
21240;BME280;10778;48.962;9.018;2023-03-18T04:35:31;98744.94;;;3.94;100.00
21240;BME280;10778;48.962;9.018;2023-03-18T04:37:57;98744.31;;;3.91;100.00
21240;BME280;10778;48.962;9.018;2023-03-18T04:40:23;98743.28;;;3.93;100.00
21240;BME280;10778;48.962;9.018;2023-03-18T04:42:49;98739.31;;;3.88;100.00
21240;BME280;10778;48.962;9.018;2023-03-18T04:45:20;98736.06;;;3.84;100.00
21240;BME280;10778;48.962;9.018;2023-03-18T04:47:48;98743.16;;;3.82;100.00
21240;BME280;10778;48.962;9.018;2023-03-18T04:50:15;98745.03;;;3.80;100.00
21240;BME280;10778;48.962;9.018;2023-03-18T04:52:41;98745.25;;;3.77;100.00
21240;BME280;10778;48.962;9.018;2023-03-18T04:55:13;98747.00;;;3.76;100.00
21240;BME280;10778;48.962;9.018;2023-03-18T04:57:41;98743.25;;;3.67;100.00
21240;BME280;10778;48.962;9.018;2023-03-18T05:00:13;98754.81;;;3.63;100.00
21240;BME280;10778;48.962;9.018;2023-03-18T05:02:42;98755.94;;;3.59;100.00
21240;BME280;10778;48.962;9.018;2023-03-18T05:05:09;98762.59;;;3.50;100.00
21240;BME280;10778;48.962;9.018;2023-03-18T05:07:40;98757.06;;;3.42;100.00
21240;BME280;10778;48.962;9.018;2023-03-18T05:10:11;98756.44;;;3.38;100.00
21240;BME280;10778;48.962;9.018;2023-03-18T05:12:37;98751.44;;;3.35;100.00
21240;BME280;10778;48.962;9.018;2023-03-18T05:15:05;98749.38;;;3.40;100.00
21240;BME280;10778;48.962;9.018;2023-03-18T05:17:33;98748.72;;;3.37;100.00
21240;BME280;10778;48.962;9.018;2023-03-18T05:20:02;98752.56;;;3.31;100.00
21240;BME280;10778;48.962;9.018;2023-03-18T05:22:29;98763.47;;;3.23;100.00
21240;BME280;10778;48.962;9.018;2023-03-18T05:25:04;98757.81;;;3.17;100.00
21240;BME280;10778;48.962;9.018;2023-03-18T05:27:31;98752.28;;;3.08;100.00
21240;BME280;10778;48.962;9.018;2023-03-18T05:30:07;98761.34;;;3.16;100.00
21240;BME280;10778;48.962;9.018;2023-03-18T05:32:53;98762.59;;;3.10;100.00
21240;BME280;10778;48.962;9.018;2023-03-18T05:35:26;98761.66;;;3.11;100.00
21240;BME280;10778;48.962;9.018;2023-03-18T05:37:53;98766.72;;;2.99;100.00
21240;BME280;10778;48.962;9.018;2023-03-18T05:40:19;98758.50;;;3.06;100.00
21240;BME280;10778;48.962;9.018;2023-03-18T05:43:03;98754.97;;;3.07;100.00
21240;BME280;10778;48.962;9.018;2023-03-18T05:45:36;98765.00;;;3.13;100.00
21240;BME280;10778;48.962;9.018;2023-03-18T05:48:04;98759.25;;;3.08;100.00
21240;BME280;10778;48.962;9.018;2023-03-18T05:50:39;98766.06;;;2.96;100.00
21240;BME280;10778;48.962;9.018;2023-03-18T05:53:10;98766.78;;;2.98;100.00
21240;BME280;10778;48.962;9.018;2023-03-18T05:55:42;98763.91;;;3.03;100.00
21240;BME280;10778;48.962;9.018;2023-03-18T05:58:09;98766.13;;;3.09;100.00
21240;BME280;10778;48.962;9.018;2023-03-18T06:00:38;98772.56;;;3.03;100.00
21240;BME280;10778;48.962;9.018;2023-03-18T06:03:05;98772.34;;;3.06;100.00
21240;BME280;10778;48.962;9.018;2023-03-18T06:05:32;98775.78;;;3.07;100.00
21240;BME280;10778;48.962;9.018;2023-03-18T06:07:58;98779.31;;;3.06;100.00
21240;BME280;10778;48.962;9.018;2023-03-18T06:10:26;98776.19;;;3.01;100.00
21240;BME280;10778;48.962;9.018;2023-03-18T06:12:52;98777.34;;;3.09;100.00
21240;BME280;10778;48.962;9.018;2023-03-18T06:15:21;98774.66;;;3.11;100.00
21240;BME280;10778;48.962;9.018;2023-03-18T06:17:48;98774.19;;;3.19;100.00
21240;BME280;10778;48.962;9.018;2023-03-18T06:20:15;98778.75;;;3.28;100.00
21240;BME280;10778;48.962;9.018;2023-03-18T06:22:44;98774.94;;;3.34;100.00
21240;BME280;10778;48.962;9.018;2023-03-18T06:25:19;98778.91;;;3.39;100.00
21240;BME280;10778;48.962;9.018;2023-03-18T06:27:47;98789.63;;;3.48;100.00
21240;BME280;10778;48.962;9.018;2023-03-18T06:30:15;98782.66;;;3.35;100.00
21240;BME280;10778;48.962;9.018;2023-03-18T06:32:42;98781.94;;;3.46;100.00
21240;BME280;10778;48.962;9.018;2023-03-18T06:35:10;98785.09;;;3.64;100.00
21240;BME280;10778;48.962;9.018;2023-03-18T06:37:38;98780.31;;;3.84;100.00
21240;BME280;10778;48.962;9.018;2023-03-18T06:40:07;98781.88;;;3.99;100.00
21240;BME280;10778;48.962;9.018;2023-03-18T06:42:34;98780.25;;;4.11;100.00
21240;BME280;10778;48.962;9.018;2023-03-18T06:45:07;98789.59;;;4.27;100.00
21240;BME280;10778;48.962;9.018;2023-03-18T06:47:51;98796.66;;;4.51;100.00
21240;BME280;10778;48.962;9.018;2023-03-18T06:50:17;98790.66;;;4.75;100.00
21240;BME280;10778;48.962;9.018;2023-03-18T06:52:43;98793.75;;;5.17;100.00
21240;BME280;10778;48.962;9.018;2023-03-18T06:55:13;98780.22;;;6.97;97.04
21240;BME280;10778;48.962;9.018;2023-03-18T06:57:42;98769.69;;;8.67;83.20
21240;BME280;10778;48.962;9.018;2023-03-18T07:00:11;98770.09;;;9.33;79.28
21240;BME280;10778;48.962;9.018;2023-03-18T07:02:38;98762.28;;;10.66;75.40
21240;BME280;10778;48.962;9.018;2023-03-18T07:05:05;98765.94;;;11.38;71.43
21240;BME280;10778;48.962;9.018;2023-03-18T07:07:34;98764.94;;;12.02;68.11
21240;BME280;10778;48.962;9.018;2023-03-18T07:10:08;98764.50;;;11.44;71.77
21240;BME280;10778;48.962;9.018;2023-03-18T07:12:35;98758.78;;;13.14;65.12
21240;BME280;10778;48.962;9.018;2023-03-18T07:15:02;98763.84;;;11.05;69.66
21240;BME280;10778;48.962;9.018;2023-03-18T07:17:28;98776.31;;;10.19;75.79
21240;BME280;10778;48.962;9.018;2023-03-18T07:19:56;98778.16;;;9.99;76.80
21240;BME280;10778;48.962;9.018;2023-03-18T07:22:22;98776.34;;;10.00;77.44
21240;BME280;10778;48.962;9.018;2023-03-18T07:24:49;98780.94;;;9.78;78.88
21240;BME280;10778;48.962;9.018;2023-03-18T07:27:17;98777.59;;;9.95;78.04
21240;BME280;10778;48.962;9.018;2023-03-18T07:29:43;98769.28;;;10.00;78.18
21240;BME280;10778;48.962;9.018;2023-03-18T07:32:09;98778.81;;;10.11;79.49
21240;BME280;10778;48.962;9.018;2023-03-18T07:34:35;98778.00;;;11.41;73.13
21240;BME280;10778;48.962;9.018;2023-03-18T07:37:01;98767.50;;;13.14;68.87
21240;BME280;10778;48.962;9.018;2023-03-18T07:39:28;98765.22;;;14.50;62.59
21240;BME280;10778;48.962;9.018;2023-03-18T07:41:55;98760.19;;;15.65;56.81
21240;BME280;10778;48.962;9.018;2023-03-18T07:44:27;98767.50;;;15.63;56.67
21240;BME280;10778;48.962;9.018;2023-03-18T07:46:53;98768.00;;;15.67;56.09
21240;BME280;10778;48.962;9.018;2023-03-18T07:49:19;98762.13;;;15.95;56.04
21240;BME280;10778;48.962;9.018;2023-03-18T07:51:46;98763.78;;;15.34;58.03
21240;BME280;10778;48.962;9.018;2023-03-18T07:54:12;98758.53;;;16.63;55.40
21240;BME280;10778;48.962;9.018;2023-03-18T07:56:39;98756.44;;;17.32;53.76
21240;BME280;10778;48.962;9.018;2023-03-18T07:59:05;98755.00;;;17.58;52.69
21240;BME280;10778;48.962;9.018;2023-03-18T08:01:31;98752.69;;;17.76;53.49
21240;BME280;10778;48.962;9.018;2023-03-18T08:03:58;98766.50;;;17.37;53.29
21240;BME280;10778;48.962;9.018;2023-03-18T08:06:24;98757.50;;;18.16;53.61
21240;BME280;10778;48.962;9.018;2023-03-18T08:08:51;98766.00;;;17.76;53.73
21240;BME280;10778;48.962;9.018;2023-03-18T08:11:17;98763.75;;;18.37;51.40
21240;BME280;10778;48.962;9.018;2023-03-18T08:13:43;98770.72;;;17.09;54.06
21240;BME280;10778;48.962;9.018;2023-03-18T08:16:09;98775.78;;;17.69;53.58
21240;BME280;10778;48.962;9.018;2023-03-18T08:18:35;98772.63;;;18.09;52.91
21240;BME280;10778;48.962;9.018;2023-03-18T08:21:01;98779.09;;;18.77;51.03
21240;BME280;10778;48.962;9.018;2023-03-18T08:23:27;98766.19;;;18.81;51.54
21240;BME280;10778;48.962;9.018;2023-03-18T08:25:54;98757.13;;;19.71;48.69
21240;BME280;10778;48.962;9.018;2023-03-18T08:28:20;98763.88;;;20.14;48.30
21240;BME280;10778;48.962;9.018;2023-03-18T08:30:46;98761.63;;;19.50;49.23
21240;BME280;10778;48.962;9.018;2023-03-18T08:33:12;98763.28;;;19.98;48.92
21240;BME280;10778;48.962;9.018;2023-03-18T08:35:39;98756.72;;;19.47;47.83
21240;BME280;10778;48.962;9.018;2023-03-18T08:38:06;98768.63;;;17.98;52.16
21240;BME280;10778;48.962;9.018;2023-03-18T08:40:32;98774.59;;;17.50;51.77
21240;BME280;10778;48.962;9.018;2023-03-18T08:42:59;98773.34;;;18.31;49.71
21240;BME280;10778;48.962;9.018;2023-03-18T08:45:25;98768.66;;;18.82;51.57
21240;BME280;10778;48.962;9.018;2023-03-18T08:47:53;98768.94;;;19.08;47.48
21240;BME280;10778;48.962;9.018;2023-03-18T08:50:20;98763.69;;;20.09;47.26
21240;BME280;10778;48.962;9.018;2023-03-18T08:52:46;98762.53;;;20.43;45.35
21240;BME280;10778;48.962;9.018;2023-03-18T08:55:12;98758.78;;;19.99;45.26
21240;BME280;10778;48.962;9.018;2023-03-18T08:57:38;98768.44;;;19.93;46.04
21240;BME280;10778;48.962;9.018;2023-03-18T09:00:05;98760.00;;;20.03;45.68
21240;BME280;10778;48.962;9.018;2023-03-18T09:02:31;98763.66;;;20.22;45.23
21240;BME280;10778;48.962;9.018;2023-03-18T09:04:58;98757.31;;;21.14;43.94
21240;BME280;10778;48.962;9.018;2023-03-18T09:07:24;98762.28;;;20.65;44.98
21240;BME280;10778;48.962;9.018;2023-03-18T09:09:51;98757.72;;;20.13;43.82
21240;BME280;10778;48.962;9.018;2023-03-18T09:12:17;98762.03;;;20.14;43.30
21240;BME280;10778;48.962;9.018;2023-03-18T09:14:43;98756.47;;;21.46;41.13
21240;BME280;10778;48.962;9.018;2023-03-18T09:17:09;98760.00;;;20.03;43.53
21240;BME280;10778;48.962;9.018;2023-03-18T09:19:35;98755.38;;;20.44;41.38
21240;BME280;10778;48.962;9.018;2023-03-18T09:22:02;98751.19;;;20.61;41.98
21240;BME280;10778;48.962;9.018;2023-03-18T09:24:28;98754.47;;;21.09;40.25
21240;BME280;10778;48.962;9.018;2023-03-18T09:26:54;98744.03;;;21.58;40.25
21240;BME280;10778;48.962;9.018;2023-03-18T09:29:20;98751.72;;;21.48;40.23
21240;BME280;10778;48.962;9.018;2023-03-18T09:31:46;98744.13;;;21.13;41.52
21240;BME280;10778;48.962;9.018;2023-03-18T09:34:12;98742.25;;;21.20;40.03
21240;BME280;10778;48.962;9.018;2023-03-18T09:36:39;98738.59;;;21.72;38.40
21240;BME280;10778;48.962;9.018;2023-03-18T09:39:05;98727.75;;;21.85;38.46
21240;BME280;10778;48.962;9.018;2023-03-18T09:44:37;98724.00;;;21.10;38.60
21240;BME280;10778;48.962;9.018;2023-03-18T09:50:06;98730.91;;;20.93;39.67
21240;BME280;10778;48.962;9.018;2023-03-18T09:53:15;98726.41;;;21.18;38.66
21240;BME280;10778;48.962;9.018;2023-03-18T09:55:55;98721.44;;;21.22;39.10
21240;BME280;10778;48.962;9.018;2023-03-18T09:58:51;98706.47;;;21.72;37.40
21240;BME280;10778;48.962;9.018;2023-03-18T10:01:21;98712.41;;;20.91;37.14
21240;BME280;10778;48.962;9.018;2023-03-18T10:04:18;98713.94;;;20.21;40.83
21240;BME280;10778;48.962;9.018;2023-03-18T10:06:47;98710.94;;;19.64;39.92
21240;BME280;10778;48.962;9.018;2023-03-18T10:09:19;98709.09;;;19.64;39.25
21240;BME280;10778;48.962;9.018;2023-03-18T10:11:51;98716.88;;;19.86;39.50
21240;BME280;10778;48.962;9.018;2023-03-18T10:14:27;98719.94;;;20.03;40.55
21240;BME280;10778;48.962;9.018;2023-03-18T10:17:20;98709.38;;;20.81;38.63
21240;BME280;10778;48.962;9.018;2023-03-18T10:19:52;98710.25;;;21.07;37.66
21240;BME280;10778;48.962;9.018;2023-03-18T10:22:23;98703.66;;;21.35;37.32
21240;BME280;10778;48.962;9.018;2023-03-18T10:30:56;98708.88;;;19.52;38.75
21240;BME280;10778;48.962;9.018;2023-03-18T10:36:26;98704.91;;;20.15;39.04
21240;BME280;10778;48.962;9.018;2023-03-18T10:38:55;98700.69;;;20.46;39.09
21240;BME280;10778;48.962;9.018;2023-03-18T10:41:33;98707.13;;;21.10;39.54
21240;BME280;10778;48.962;9.018;2023-03-18T10:44:37;98702.00;;;21.08;38.69
21240;BME280;10778;48.962;9.018;2023-03-18T10:47:35;98691.63;;;21.44;37.20
21240;BME280;10778;48.962;9.018;2023-03-18T10:50:23;98692.53;;;20.73;38.21
21240;BME280;10778;48.962;9.018;2023-03-18T10:55:35;98681.50;;;20.95;39.24
21240;BME280;10778;48.962;9.018;2023-03-18T10:58:14;98686.38;;;21.30;37.68
21240;BME280;10778;48.962;9.018;2023-03-18T11:00:41;98688.69;;;21.01;38.41
21240;BME280;10778;48.962;9.018;2023-03-18T11:03:17;98686.00;;;20.63;38.74
21240;BME280;10778;48.962;9.018;2023-03-18T11:05:44;98691.47;;;21.13;38.63
21240;BME280;10778;48.962;9.018;2023-03-18T11:08:31;98686.72;;;20.83;39.30
21240;BME280;10778;48.962;9.018;2023-03-18T11:11:20;98683.22;;;20.89;38.74
21240;BME280;10778;48.962;9.018;2023-03-18T11:13:55;98686.75;;;20.38;41.35
21240;BME280;10778;48.962;9.018;2023-03-18T11:18:58;98669.38;;;20.60;39.56
21240;BME280;10778;48.962;9.018;2023-03-18T11:21:25;98668.28;;;20.68;37.78
21240;BME280;10778;48.962;9.018;2023-03-18T11:24:00;98668.84;;;20.77;39.15
21240;BME280;10778;48.962;9.018;2023-03-18T11:26:47;98665.16;;;20.78;38.20
21240;BME280;10778;48.962;9.018;2023-03-18T11:29:20;98657.69;;;20.94;40.43
21240;BME280;10778;48.962;9.018;2023-03-18T11:31:52;98654.22;;;20.80;38.97
21240;BME280;10778;48.962;9.018;2023-03-18T11:34:20;98657.06;;;20.53;40.77
21240;BME280;10778;48.962;9.018;2023-03-18T11:37:01;98653.56;;;20.91;40.19
21240;BME280;10778;48.962;9.018;2023-03-18T11:39:31;98653.78;;;20.51;38.33
21240;BME280;10778;48.962;9.018;2023-03-18T11:41:59;98652.03;;;20.70;38.31
21240;BME280;10778;48.962;9.018;2023-03-18T11:44:31;98647.34;;;20.65;39.29
21240;BME280;10778;48.962;9.018;2023-03-18T11:47:04;98643.75;;;20.46;41.30
21240;BME280;10778;48.962;9.018;2023-03-18T11:49:32;98640.63;;;20.49;39.07
21240;BME280;10778;48.962;9.018;2023-03-18T11:54:41;98638.16;;;20.15;39.59
21240;BME280;10778;48.962;9.018;2023-03-18T11:57:58;98639.63;;;20.43;39.68
21240;BME280;10778;48.962;9.018;2023-03-18T12:00:32;98632.53;;;20.24;39.36
21240;BME280;10778;48.962;9.018;2023-03-18T12:08:32;98635.69;;;20.07;41.30
21240;BME280;10778;48.962;9.018;2023-03-18T12:11:24;98625.78;;;20.92;39.37
21240;BME280;10778;48.962;9.018;2023-03-18T12:14:19;98617.66;;;20.80;39.18
21240;BME280;10778;48.962;9.018;2023-03-18T12:22:05;98611.13;;;20.69;39.60
21240;BME280;10778;48.962;9.018;2023-03-18T12:32:34;98604.28;;;20.80;37.44
21240;BME280;10778;48.962;9.018;2023-03-18T12:45:33;98592.31;;;20.89;38.57
21240;BME280;10778;48.962;9.018;2023-03-18T12:48:08;98604.38;;;20.28;41.07
21240;BME280;10778;48.962;9.018;2023-03-18T12:50:41;98588.78;;;20.57;38.51
21240;BME280;10778;48.962;9.018;2023-03-18T12:53:16;98583.66;;;21.13;38.07
21240;BME280;10778;48.962;9.018;2023-03-18T12:55:48;98579.75;;;21.53;38.10
21240;BME280;10778;48.962;9.018;2023-03-18T12:58:18;98578.16;;;21.70;38.27
21240;BME280;10778;48.962;9.018;2023-03-18T13:04:19;98572.44;;;21.85;38.09
21240;BME280;10778;48.962;9.018;2023-03-18T13:06:54;98573.59;;;21.52;39.25
21240;BME280;10778;48.962;9.018;2023-03-18T13:12:05;98564.13;;;22.36;37.79
21240;BME280;10778;48.962;9.018;2023-03-18T13:14:43;98563.22;;;22.12;37.80
21240;BME280;10778;48.962;9.018;2023-03-18T13:17:38;98553.38;;;21.75;38.28
21240;BME280;10778;48.962;9.018;2023-03-18T13:20:16;98560.09;;;21.84;36.86
21240;BME280;10778;48.962;9.018;2023-03-18T13:34:02;98554.13;;;21.82;37.77
21240;BME280;10778;48.962;9.018;2023-03-18T13:44:43;98564.28;;;20.92;39.24
21240;BME280;10778;48.962;9.018;2023-03-18T13:47:18;98557.03;;;22.11;37.26
21240;BME280;10778;48.962;9.018;2023-03-18T13:49:46;98563.22;;;21.18;38.67
21240;BME280;10778;48.962;9.018;2023-03-18T13:52:27;98553.09;;;21.02;38.97
21240;BME280;10778;48.962;9.018;2023-03-18T13:55:02;98553.38;;;20.94;39.89
21240;BME280;10778;48.962;9.018;2023-03-18T13:57:41;98551.09;;;20.97;41.39
21240;BME280;10778;48.962;9.018;2023-03-18T14:00:24;98551.75;;;20.35;41.21
21240;BME280;10778;48.962;9.018;2023-03-18T14:03:14;98540.16;;;20.73;42.62
21240;BME280;10778;48.962;9.018;2023-03-18T14:05:44;98543.19;;;20.52;40.80
21240;BME280;10778;48.962;9.018;2023-03-18T14:16:23;98546.88;;;21.08;38.65
21240;BME280;10778;48.962;9.018;2023-03-18T14:19:25;98545.47;;;20.80;41.54
21240;BME280;10778;48.962;9.018;2023-03-18T14:22:07;98543.41;;;20.50;44.76
21240;BME280;10778;48.962;9.018;2023-03-18T14:24:33;98545.59;;;20.28;42.68
21240;BME280;10778;48.962;9.018;2023-03-18T14:29:40;98552.91;;;19.61;43.27
21240;BME280;10778;48.962;9.018;2023-03-18T14:34:59;98550.72;;;19.84;47.73
21240;BME280;10778;48.962;9.018;2023-03-18T14:37:26;98548.22;;;19.37;44.63
21240;BME280;10778;48.962;9.018;2023-03-18T14:39:58;98553.38;;;18.98;47.32
21240;BME280;10778;48.962;9.018;2023-03-18T14:42:43;98554.81;;;18.73;47.88
21240;BME280;10778;48.962;9.018;2023-03-18T14:45:17;98546.63;;;18.68;48.09
21240;BME280;10778;48.962;9.018;2023-03-18T14:47:51;98541.22;;;18.14;48.36
21240;BME280;10778;48.962;9.018;2023-03-18T14:50:24;98539.38;;;18.08;48.85
21240;BME280;10778;48.962;9.018;2023-03-18T14:55:35;98546.19;;;17.75;50.22
21240;BME280;10778;48.962;9.018;2023-03-18T14:58:02;98547.94;;;17.55;49.92